Time;durP1;ratioP1;P1;durP2;ratioP2;P2;SDS_P1;SDS_P2;PMS_P1;PMS_P2;Temp;Humidity;BMP_temperature;BMP_pressure;BME280_temperature;BME280_humidity;BME280_pressure;Samples;Min_cycle;Max_cycle;Signal;HPM_P1;HPM_P2
2023/12/05 00:02:00;;;;;;;0.40;0.40;;;;;;;;;;5052284;28;21010;-72
2023/12/05 00:04:26;;;;;;;0.70;0.70;;;;;;;;;;5052216;28;20462;-72
2023/12/05 00:06:52;;;;;;;0.60;0.60;;;;;;;;;;5052807;28;20422;-72
2023/12/05 00:09:18;;;;;;;0.40;0.40;;;;;;;;;;5054456;28;20971;-72
2023/12/05 00:11:44;;;;;;;0.30;0.30;;;;;;;;;;5056082;28;20437;-72
2023/12/05 00:14:10;;;;;;;7.50;0.40;;;;;;;;;;5055888;28;20787;-72
2023/12/05 00:16:36;;;;;;;0.40;0.40;;;;;;;;;;5056240;28;20429;-72
2023/12/05 00:19:02;;;;;;;0.97;0.53;;;;;;;;;;5055893;28;20418;-72
2023/12/05 00:21:28;;;;;;;0.40;0.40;;;;;;;;;;5055720;28;20497;-72
2023/12/05 00:23:54;;;;;;;0.33;0.33;;;;;;;;;;5055610;28;20406;-72
2023/12/05 00:26:20;;;;;;;2.63;1.13;;;;;;;;;;5055833;28;20414;-72
2023/12/05 00:28:46;;;;;;;0.53;0.53;;;;;;;;;;5055998;28;20817;-72
2023/12/05 00:31:12;;;;;;;0.40;0.40;;;;;;;;;;5055741;28;20442;-72
2023/12/05 00:33:38;;;;;;;0.40;0.40;;;;;;;;;;5055611;28;20446;-72
2023/12/05 00:36:04;;;;;;;0.67;0.40;;;;;;;;;;5055858;28;20462;-72
2023/12/05 00:38:30;;;;;;;0.40;0.40;;;;;;;;;;5055608;28;20418;-71
2023/12/05 00:40:59;;;;;;;0.47;0.47;;;;;;;;;;5055730;28;20869;-72
2023/12/05 00:43:25;;;;;;;0.40;0.40;;;;;;;;;;5055574;28;20475;-72
2023/12/05 00:45:51;;;;;;;0.40;0.40;;;;;;;;;;5055386;28;20514;-72
2023/12/05 00:48:17;;;;;;;0.30;0.30;;;;;;;;;;5055527;28;20415;-72
2023/12/05 00:50:43;;;;;;;0.40;0.40;;;;;;;;;;5055201;28;20413;-72
2023/12/05 00:53:09;;;;;;;0.40;0.40;;;;;;;;;;5055300;28;20425;-72
2023/12/05 00:55:35;;;;;;;0.30;0.30;;;;;;;;;;5055279;28;20469;-72
2023/12/05 00:58:01;;;;;;;0.30;0.30;;;;;;;;;;5053944;28;20422;-72
2023/12/05 01:00:27;;;;;;;0.30;0.30;;;;;;;;;;5055336;28;20466;-72
2023/12/05 01:02:53;;;;;;;0.40;0.30;;;;;;;;;;5055040;28;20440;-72
2023/12/05 01:05:19;;;;;;;0.47;0.47;;;;;;;;;;5054944;28;20567;-72
2023/12/05 01:07:45;;;;;;;1.40;0.40;;;;;;;;;;5053717;28;20442;-72
2023/12/05 01:10:11;;;;;;;0.30;0.30;;;;;;;;;;5055336;28;20426;-72
2023/12/05 01:12:37;;;;;;;0.40;0.40;;;;;;;;;;5054834;28;20418;-72
2023/12/05 01:15:04;;;;;;;0.40;0.40;;;;;;;;;;5055165;28;20854;-72
2023/12/05 01:17:30;;;;;;;0.30;0.30;;;;;;;;;;5055127;28;20422;-72
2023/12/05 01:22:59;;;;;;;0.30;0.30;;;;;;;;;;5055046;28;20393;-72
2023/12/05 01:25:25;;;;;;;0.50;0.50;;;;;;;;;;5054938;28;20426;-72
2023/12/05 01:27:52;;;;;;;0.40;0.40;;;;;;;;;;5054677;28;20417;-72
2023/12/05 01:30:19;;;;;;;0.30;0.30;;;;;;;;;;5055046;28;21009;-72
2023/12/05 01:32:44;;;;;;;0.37;0.37;;;;;;;;;;5054871;28;20410;-71
2023/12/05 01:35:10;;;;;;;0.37;0.37;;;;;;;;;;5054752;28;20414;-72
2023/12/05 01:37:38;;;;;;;0.40;0.40;;;;;;;;;;5054465;28;20419;-72
2023/12/05 01:40:04;;;;;;;0.30;0.30;;;;;;;;;;5054277;28;20415;-72
2023/12/05 01:42:30;;;;;;;0.30;0.30;;;;;;;;;;5054352;28;20426;-71
2023/12/05 01:44:56;;;;;;;0.40;0.40;;;;;;;;;;5054629;28;20777;-72
2023/12/05 01:47:22;;;;;;;0.40;0.40;;;;;;;;;;5054203;28;20809;-71
2023/12/05 01:49:48;;;;;;;1.33;0.40;;;;;;;;;;5054170;28;20422;-71
2023/12/05 01:52:14;;;;;;;0.30;0.30;;;;;;;;;;5054141;28;20466;-72
2023/12/05 01:54:40;;;;;;;0.40;0.40;;;;;;;;;;5054443;28;20903;-72
2023/12/05 01:57:06;;;;;;;1.33;0.50;;;;;;;;;;5054371;28;20418;-71
2023/12/05 01:59:33;;;;;;;0.57;0.57;;;;;;;;;;5054251;28;20471;-71
2023/12/05 02:01:59;;;;;;;0.47;0.47;;;;;;;;;;5053933;28;20506;-71
2023/12/05 02:04:25;;;;;;;0.30;0.30;;;;;;;;;;5052438;28;20474;-72
2023/12/05 02:06:51;;;;;;;0.33;0.33;;;;;;;;;;5054156;28;20488;-72
2023/12/05 02:09:19;;;;;;;0.40;0.40;;;;;;;;;;5054106;28;20422;-71
2023/12/05 02:11:46;;;;;;;1.00;0.67;;;;;;;;;;5053728;28;20419;-72
2023/12/05 02:14:12;;;;;;;0.50;0.50;;;;;;;;;;5053970;28;20411;-72
2023/12/05 02:16:40;;;;;;;0.47;0.47;;;;;;;;;;5054182;28;20868;-72
2023/12/05 02:19:25;;;;;;;0.53;0.40;;;;;;;;;;5053875;28;20414;-71
2023/12/05 02:21:53;;;;;;;0.40;0.40;;;;;;;;;;5053725;28;20859;-72
2023/12/05 02:24:22;;;;;;;0.53;0.53;;;;;;;;;;5053517;28;20421;-72
2023/12/05 02:27:11;;;;;;;0.50;0.50;;;;;;;;;;5053568;28;20426;-72
2023/12/05 02:29:47;;;;;;;1.47;0.70;;;;;;;;;;5050400;28;20476;-71
2023/12/05 02:32:13;;;;;;;0.40;0.40;;;;;;;;;;5052644;28;20503;-72
2023/12/05 02:34:39;;;;;;;0.80;0.80;;;;;;;;;;5053716;28;20762;-71
2023/12/05 02:37:05;;;;;;;1.13;0.77;;;;;;;;;;5053599;28;20418;-72
2023/12/05 02:39:41;;;;;;;1.47;0.80;;;;;;;;;;5053590;28;20774;-72
2023/12/05 02:42:09;;;;;;;0.80;0.80;;;;;;;;;;5053218;28;20838;-72
2023/12/05 02:44:45;;;;;;;0.50;0.50;;;;;;;;;;5053257;28;20425;-71
2023/12/05 02:47:12;;;;;;;0.60;0.60;;;;;;;;;;5053503;28;20402;-72
2023/12/05 02:49:39;;;;;;;0.50;0.50;;;;;;;;;;5053112;28;20414;-72
2023/12/05 02:52:05;;;;;;;0.60;0.60;;;;;;;;;;5053081;28;20914;-71
2023/12/05 02:54:31;;;;;;;0.60;0.60;;;;;;;;;;5053205;28;20410;-71
2023/12/05 02:56:57;;;;;;;1.10;0.70;;;;;;;;;;5053410;28;20464;-72
2023/12/05 02:59:23;;;;;;;0.67;0.67;;;;;;;;;;5053015;28;20446;-72
2023/12/05 03:01:49;;;;;;;0.50;0.50;;;;;;;;;;5053669;28;20520;-72
2023/12/05 03:04:16;;;;;;;0.60;0.60;;;;;;;;;;5052787;28;20464;-72
2023/12/05 03:06:43;;;;;;;1.00;0.63;;;;;;;;;;5053128;28;20537;-72
2023/12/05 03:09:09;;;;;;;0.93;0.70;;;;;;;;;;5053148;28;20442;-72
2023/12/05 03:11:35;;;;;;;0.80;0.80;;;;;;;;;;5053214;28;20428;-72
2023/12/05 03:14:03;;;;;;;1.30;0.40;;;;;;;;;;5052898;28;20500;-72
2023/12/05 03:16:29;;;;;;;0.50;0.50;;;;;;;;;;5053032;28;20434;-72
2023/12/05 03:18:55;;;;;;;0.50;0.50;;;;;;;;;;5052855;28;20424;-71
2023/12/05 03:21:21;;;;;;;0.40;0.40;;;;;;;;;;5052707;28;20478;-71
2023/12/05 03:23:47;;;;;;;3.87;0.40;;;;;;;;;;5053063;28;20954;-72
2023/12/05 03:26:23;;;;;;;0.30;0.30;;;;;;;;;;5052745;28;20962;-72
2023/12/05 03:28:49;;;;;;;0.63;0.60;;;;;;;;;;5053041;28;20406;-72
2023/12/05 03:31:15;;;;;;;0.50;0.50;;;;;;;;;;5053030;28;20426;-72
2023/12/05 03:33:41;;;;;;;0.90;0.90;;;;;;;;;;5052856;28;20419;-71
2023/12/05 03:36:07;;;;;;;0.77;0.60;;;;;;;;;;5053000;28;20421;-72
2023/12/05 03:38:33;;;;;;;0.60;0.60;;;;;;;;;;5053007;28;20425;-72
2023/12/05 03:40:59;;;;;;;0.50;0.50;;;;;;;;;;5052727;28;20469;-72
2023/12/05 03:43:25;;;;;;;0.50;0.50;;;;;;;;;;5055060;28;20768;-71
2023/12/05 03:45:51;;;;;;;0.67;0.67;;;;;;;;;;5056605;28;20453;-72
2023/12/05 03:48:17;;;;;;;1.03;0.50;;;;;;;;;;5056987;28;20410;-72
2023/12/05 03:50:43;;;;;;;0.70;0.70;;;;;;;;;;5056752;28;20414;-72
2023/12/05 03:53:09;;;;;;;0.60;0.60;;;;;;;;;;5056924;28;20410;-72
2023/12/05 03:55:35;;;;;;;1.17;0.70;;;;;;;;;;5056346;28;20517;-72
2023/12/05 03:58:01;;;;;;;2.20;0.50;;;;;;;;;;5056648;28;20419;-72
2023/12/05 04:00:27;;;;;;;1.37;0.90;;;;;;;;;;5056454;28;20465;-72
2023/12/05 04:02:53;;;;;;;0.57;0.57;;;;;;;;;;5056148;28;20422;-71
2023/12/05 04:05:19;;;;;;;2.40;0.63;;;;;;;;;;5056052;28;20477;-72
2023/12/05 04:07:45;;;;;;;1.00;0.90;;;;;;;;;;5056220;28;20425;-72
2023/12/05 04:10:11;;;;;;;1.13;1.13;;;;;;;;;;5056649;28;20422;-72
2023/12/05 04:12:40;;;;;;;2.47;0.50;;;;;;;;;;5056353;28;20411;-72
2023/12/05 04:15:06;;;;;;;0.80;0.80;;;;;;;;;;5056003;28;21060;-71
2023/12/05 04:17:33;;;;;;;0.80;0.80;;;;;;;;;;5056495;28;20418;-72
2023/12/05 04:19:59;;;;;;;0.57;0.50;;;;;;;;;;5056054;28;20411;-72
2023/12/05 04:22:25;;;;;;;0.70;0.40;;;;;;;;;;5055874;28;20426;-71
2023/12/05 04:24:51;;;;;;;3.43;2.63;;;;;;;;;;5055931;28;20422;-72
2023/12/05 04:27:16;;;;;;;0.70;0.60;;;;;;;;;;5055878;28;20398;-72
2023/12/05 04:32:46;;;;;;;1.40;0.50;;;;;;;;;;5055687;28;20398;-72
2023/12/05 04:35:12;;;;;;;0.40;0.40;;;;;;;;;;5055904;28;20430;-72
2023/12/05 04:37:40;;;;;;;2.57;0.50;;;;;;;;;;5055905;28;20420;-72
2023/12/05 04:40:07;;;;;;;2.63;0.50;;;;;;;;;;5055473;28;20426;-71
2023/12/05 04:42:32;;;;;;;0.50;0.50;;;;;;;;;;5055503;28;20428;-71
2023/12/05 04:44:58;;;;;;;0.53;0.43;;;;;;;;;;5056075;28;20407;-71
2023/12/05 04:47:24;;;;;;;0.43;0.43;;;;;;;;;;5055430;28;20425;-72
2023/12/05 04:49:50;;;;;;;0.50;0.50;;;;;;;;;;5055331;28;20497;-71
2023/12/05 04:52:16;;;;;;;0.70;0.70;;;;;;;;;;5055328;28;20419;-71
2023/12/05 04:54:42;;;;;;;0.50;0.50;;;;;;;;;;5054632;28;20501;-72
2023/12/05 04:57:08;;;;;;;0.43;0.43;;;;;;;;;;5055602;28;20454;-72
2023/12/05 04:59:34;;;;;;;0.50;0.50;;;;;;;;;;5055187;28;20414;-72
2023/12/05 05:02:00;;;;;;;1.17;0.60;;;;;;;;;;5055599;28;20470;-72
2023/12/05 05:04:26;;;;;;;0.53;0.53;;;;;;;;;;5055300;28;20866;-72
2023/12/05 05:06:52;;;;;;;1.87;0.70;;;;;;;;;;5055343;28;20501;-72
2023/12/05 05:09:18;;;;;;;8.03;0.80;;;;;;;;;;5055291;28;20449;-71
2023/12/05 05:11:44;;;;;;;1.43;0.47;;;;;;;;;;5055221;28;20789;-72
2023/12/05 05:14:10;;;;;;;1.03;0.97;;;;;;;;;;5055230;28;20437;-72
2023/12/05 05:16:36;;;;;;;4.03;1.23;;;;;;;;;;5055400;28;20525;-72
2023/12/05 05:19:02;;;;;;;2.00;0.60;;;;;;;;;;5054835;28;20775;-72
2023/12/05 05:21:28;;;;;;;4.37;1.40;;;;;;;;;;5054658;28;20476;-72
2023/12/05 05:23:54;;;;;;;0.50;0.50;;;;;;;;;;5055033;28;20580;-71
2023/12/05 05:26:20;;;;;;;2.33;0.70;;;;;;;;;;5055050;28;20922;-72
2023/12/05 05:28:46;;;;;;;0.83;0.80;;;;;;;;;;5054931;28;20941;-72
2023/12/05 05:31:11;;;;;;;2.43;1.80;;;;;;;;;;5054529;28;20414;-72
2023/12/05 05:33:37;;;;;;;1.70;1.40;;;;;;;;;;5054578;28;20560;-72
2023/12/05 05:36:04;;;;;;;3.90;1.33;;;;;;;;;;5054799;28;20422;-72
2023/12/05 05:38:30;;;;;;;2.70;2.03;;;;;;;;;;5054737;28;20426;-72
2023/12/05 05:41:06;;;;;;;7.70;4.00;;;;;;;;;;5054576;28;20564;-72
2023/12/05 05:43:32;;;;;;;8.17;3.70;;;;;;;;;;5054377;28;20977;-72
2023/12/05 05:45:58;;;;;;;1.57;1.33;;;;;;;;;;5054313;28;20506;-72
2023/12/05 05:48:24;;;;;;;17.67;7.70;;;;;;;;;;5054481;28;20406;-72
2023/12/05 05:50:50;;;;;;;8.17;3.47;;;;;;;;;;5054571;28;20552;-72
2023/12/05 05:53:16;;;;;;;1.07;1.07;;;;;;;;;;5054325;28;20540;-72
2023/12/05 05:55:43;;;;;;;2.20;0.70;;;;;;;;;;5054558;28;20450;-72
2023/12/05 05:58:12;;;;;;;1.03;0.40;;;;;;;;;;5054281;28;20402;-71
2023/12/05 06:00:38;;;;;;;0.40;0.40;;;;;;;;;;5053730;28;20454;-72
2023/12/05 06:03:05;;;;;;;3.00;0.90;;;;;;;;;;5054040;28;20426;-72
2023/12/05 06:05:31;;;;;;;5.30;0.77;;;;;;;;;;5053423;28;20513;-72
2023/12/05 06:07:57;;;;;;;0.83;0.60;;;;;;;;;;5053494;28;20414;-71
2023/12/05 06:10:23;;;;;;;0.70;0.70;;;;;;;;;;5054054;28;20418;-72
2023/12/05 06:12:49;;;;;;;2.63;0.70;;;;;;;;;;5054203;28;20759;-72
2023/12/05 06:15:15;;;;;;;1.40;0.60;;;;;;;;;;5053937;28;20607;-71
2023/12/05 06:17:40;;;;;;;1.00;0.60;;;;;;;;;;5053825;28;20464;-72
2023/12/05 06:20:08;;;;;;;1.33;0.70;;;;;;;;;;5053486;28;20414;-72
2023/12/05 06:22:34;;;;;;;2.33;0.50;;;;;;;;;;5052190;28;20430;-71
2023/12/05 06:25:00;;;;;;;1.40;1.00;;;;;;;;;;5052668;28;20466;-71
2023/12/05 06:27:26;;;;;;;1.07;0.77;;;;;;;;;;5053562;28;20430;-72
2023/12/05 06:29:53;;;;;;;1.40;0.97;;;;;;;;;;5053711;28;20457;-72
2023/12/05 06:32:19;;;;;;;2.90;0.90;;;;;;;;;;5054146;28;20438;-72
2023/12/05 06:34:44;;;;;;;1.27;0.77;;;;;;;;;;5052936;28;20426;-71
2023/12/05 06:37:10;;;;;;;1.33;1.20;;;;;;;;;;5053112;28;20468;-71
2023/12/05 06:39:37;;;;;;;1.17;1.17;;;;;;;;;;5053494;28;20429;-71
2023/12/05 06:42:03;;;;;;;0.83;0.50;;;;;;;;;;5053351;28;20470;-72
2023/12/05 06:44:29;;;;;;;2.47;0.60;;;;;;;;;;5053088;28;20509;-71
2023/12/05 06:46:55;;;;;;;0.87;0.60;;;;;;;;;;5053001;28;20518;-71
2023/12/05 06:49:22;;;;;;;0.50;0.50;;;;;;;;;;5053043;28;20411;-71
2023/12/05 06:51:55;;;;;;;1.30;1.30;;;;;;;;;;5052966;28;20418;-71
2023/12/05 06:54:22;;;;;;;1.50;0.80;;;;;;;;;;5053249;28;20399;-71
2023/12/05 06:56:47;;;;;;;0.57;0.53;;;;;;;;;;5053834;28;20770;-72
2023/12/05 07:02:17;;;;;;;2.20;0.60;;;;;;;;;;5052832;28;20492;-72
2023/12/05 07:04:43;;;;;;;0.60;0.60;;;;;;;;;;5052735;28;20561;-72
2023/12/05 07:07:09;;;;;;;2.93;0.70;;;;;;;;;;5052942;28;20422;-71
2023/12/05 07:09:34;;;;;;;2.10;0.70;;;;;;;;;;5052926;28;20407;-71
2023/12/05 07:12:00;;;;;;;0.60;0.60;;;;;;;;;;5051549;28;20521;-71
2023/12/05 07:14:26;;;;;;;0.60;0.60;;;;;;;;;;5052800;28;20468;-71
2023/12/05 07:16:52;;;;;;;0.63;0.60;;;;;;;;;;5052631;28;20419;-71
2023/12/05 07:19:18;;;;;;;0.40;0.40;;;;;;;;;;5057314;28;20426;-71
2023/12/05 07:21:44;;;;;;;0.77;0.40;;;;;;;;;;5057224;28;20466;-71
2023/12/05 07:24:10;;;;;;;0.50;0.50;;;;;;;;;;5057671;28;20416;-72
2023/12/05 07:26:36;;;;;;;1.23;0.60;;;;;;;;;;5056817;28;20509;-71
2023/12/05 07:29:02;;;;;;;0.50;0.50;;;;;;;;;;5057120;28;20552;-71
2023/12/05 07:31:28;;;;;;;0.63;0.63;;;;;;;;;;5056809;28;20547;-72
2023/12/05 07:33:57;;;;;;;1.47;0.73;;;;;;;;;;5056661;28;20815;-72
2023/12/05 07:36:22;;;;;;;3.50;1.00;;;;;;;;;;5056974;28;20513;-71
2023/12/05 07:38:48;;;;;;;1.00;1.00;;;;;;;;;;5056962;28;20453;-71
2023/12/05 07:41:18;;;;;;;0.87;0.87;;;;;;;;;;5056738;28;20462;-71
2023/12/05 07:43:44;;;;;;;0.60;0.60;;;;;;;;;;5056771;28;20421;-72
2023/12/05 07:46:10;;;;;;;5.20;2.53;;;;;;;;;;5056777;28;20414;-71
2023/12/05 07:48:36;;;;;;;0.97;0.97;;;;;;;;;;5056153;28;20406;-71
2023/12/05 07:51:02;;;;;;;1.30;1.20;;;;;;;;;;5056372;28;20523;-71
2023/12/05 07:53:28;;;;;;;1.97;1.07;;;;;;;;;;5056188;28;20472;-71
2023/12/05 07:55:54;;;;;;;1.03;0.83;;;;;;;;;;5056414;28;20414;-71
2023/12/05 07:58:20;;;;;;;2.40;0.90;;;;;;;;;;5056609;28;20495;-71
2023/12/05 08:00:46;;;;;;;2.67;0.70;;;;;;;;;;5056440;28;20497;-71
2023/12/05 08:03:14;;;;;;;0.90;0.90;;;;;;;;;;5056134;28;20460;-71
2023/12/05 08:05:40;;;;;;;3.30;0.67;;;;;;;;;;5056023;28;20825;-70
2023/12/05 08:08:06;;;;;;;1.30;0.97;;;;;;;;;;5056407;28;20928;-71
2023/12/05 08:10:31;;;;;;;2.20;0.67;;;;;;;;;;5056404;28;20513;-71
2023/12/05 08:12:57;;;;;;;2.20;2.10;;;;;;;;;;5056337;28;20434;-75
2023/12/05 08:15:23;;;;;;;0.73;0.73;;;;;;;;;;5055672;28;20491;-71
2023/12/05 08:17:49;;;;;;;0.60;0.60;;;;;;;;;;5055877;28;20427;-70
2023/12/05 08:20:15;;;;;;;0.50;0.50;;;;;;;;;;5056066;28;20429;-70
2023/12/05 08:22:41;;;;;;;5.20;0.60;;;;;;;;;;5056807;28;20434;-71
2023/12/05 08:25:10;;;;;;;0.90;0.50;;;;;;;;;;5056147;28;20533;-71
2023/12/05 08:27:36;;;;;;;3.30;0.50;;;;;;;;;;5056152;28;20793;-72
2023/12/05 08:30:02;;;;;;;1.10;0.87;;;;;;;;;;5054467;28;20421;-71
2023/12/05 08:32:28;;;;;;;0.53;0.53;;;;;;;;;;5055547;28;20941;-71
2023/12/05 08:34:54;;;;;;;1.60;0.80;;;;;;;;;;5055944;28;20449;-71
2023/12/05 08:37:20;;;;;;;0.73;0.60;;;;;;;;;;5056187;28;20480;-71
2023/12/05 08:39:46;;;;;;;0.83;0.83;;;;;;;;;;5054767;28;20439;-71
2023/12/05 08:42:12;;;;;;;0.70;0.50;;;;;;;;;;5055775;28;20470;-71
2023/12/05 08:44:38;;;;;;;0.53;0.50;;;;;;;;;;5055436;28;20824;-70
2023/12/05 08:47:04;;;;;;;0.30;0.30;;;;;;;;;;5054169;28;20934;-71
2023/12/05 08:49:30;;;;;;;2.33;0.50;;;;;;;;;;5055322;28;20903;-71
2023/12/05 08:51:56;;;;;;;0.70;0.70;;;;;;;;;;5055323;28;20468;-70
2023/12/05 08:54:22;;;;;;;2.33;0.80;;;;;;;;;;5054329;28;20421;-70
2023/12/05 08:56:48;;;;;;;3.77;0.67;;;;;;;;;;5055821;28;20502;-71
2023/12/05 08:59:14;;;;;;;8.63;0.70;;;;;;;;;;5055660;28;20794;-69
2023/12/05 09:01:41;;;;;;;2.00;0.80;;;;;;;;;;5054994;28;20561;-71
2023/12/05 09:04:08;;;;;;;0.43;0.43;;;;;;;;;;5054983;28;20497;-70
2023/12/05 09:06:34;;;;;;;1.80;1.10;;;;;;;;;;5055048;28;20418;-70
2023/12/05 09:09:00;;;;;;;1.77;1.10;;;;;;;;;;5055240;28;20437;-71
2023/12/05 09:11:26;;;;;;;1.37;0.80;;;;;;;;;;5055290;28;20488;-69
2023/12/05 09:13:52;;;;;;;1.07;0.50;;;;;;;;;;5055010;28;20421;-69
2023/12/05 09:16:20;;;;;;;1.90;0.63;;;;;;;;;;5055075;28;20425;-70
2023/12/05 09:18:46;;;;;;;0.40;0.40;;;;;;;;;;5055100;28;20414;-69
2023/12/05 09:21:12;;;;;;;1.77;0.93;;;;;;;;;;5054676;28;20469;-71
2023/12/05 09:23:38;;;;;;;1.13;1.13;;;;;;;;;;5055080;28;20421;-71
2023/12/05 09:26:04;;;;;;;17.17;15.47;;;;;;;;;;5054588;28;21022;-70
2023/12/05 09:28:32;;;;;;;4.40;4.10;;;;;;;;;;5054962;28;20509;-71
2023/12/05 09:30:58;;;;;;;1.17;1.17;;;;;;;;;;5054774;28;20828;-71
2023/12/05 09:33:24;;;;;;;0.73;0.60;;;;;;;;;;5054845;28;20899;-70
2023/12/05 09:35:50;;;;;;;0.40;0.40;;;;;;;;;;5054432;28;20961;-70
2023/12/05 09:38:16;;;;;;;0.73;0.73;;;;;;;;;;5054849;28;20776;-71
2023/12/05 09:40:42;;;;;;;5.37;1.23;;;;;;;;;;5054420;28;20474;-71
2023/12/05 09:43:08;;;;;;;0.60;0.60;;;;;;;;;;5054647;28;20418;-71
2023/12/05 09:45:42;;;;;;;3.70;0.90;;;;;;;;;;5054745;28;20548;-71
2023/12/05 09:48:11;;;;;;;0.50;0.50;;;;;;;;;;5054853;28;20473;-70
2023/12/05 09:50:37;;;;;;;0.70;0.70;;;;;;;;;;5054182;28;20437;-72
2023/12/05 09:53:05;;;;;;;1.57;1.37;;;;;;;;;;5054462;28;20449;-71
2023/12/05 09:55:31;;;;;;;2.77;1.00;;;;;;;;;;5054363;28;20425;-71
2023/12/05 09:57:57;;;;;;;0.80;0.50;;;;;;;;;;5053975;28;20410;-70
2023/12/05 10:00:26;;;;;;;0.70;0.70;;;;;;;;;;5054234;28;20493;-70
2023/12/05 10:02:54;;;;;;;1.40;0.67;;;;;;;;;;5054281;28;20500;-71
2023/12/05 10:05:20;;;;;;;2.20;0.63;;;;;;;;;;5053930;28;20899;-70
2023/12/05 10:07:49;;;;;;;0.77;0.77;;;;;;;;;;5054129;28;20426;-70
2023/12/05 10:10:17;;;;;;;2.10;0.60;;;;;;;;;;5053953;28;20403;-71
2023/12/05 10:12:43;;;;;;;4.33;1.07;;;;;;;;;;5053935;28;20419;-71
2023/12/05 10:15:10;;;;;;;4.60;0.90;;;;;;;;;;5054020;28;20423;-70
2023/12/05 10:17:36;;;;;;;1.40;0.70;;;;;;;;;;5053977;28;20795;-70
2023/12/05 10:20:02;;;;;;;1.80;0.80;;;;;;;;;;5053912;28;20456;-70
2023/12/05 10:22:31;;;;;;;3.60;0.90;;;;;;;;;;5053519;28;20477;-70
2023/12/05 10:24:57;;;;;;;1.70;0.50;;;;;;;;;;5053916;28;20419;-70
2023/12/05 10:27:23;;;;;;;1.70;0.80;;;;;;;;;;5053858;28;20928;-70
2023/12/05 10:32:52;;;;;;;1.13;0.90;;;;;;;;;;5053507;28;20943;-70
2023/12/05 10:35:28;;;;;;;2.20;1.60;;;;;;;;;;5052200;28;20423;-71
2023/12/05 10:37:55;;;;;;;4.00;1.07;;;;;;;;;;5053707;28;20394;-70
2023/12/05 10:40:21;;;;;;;1.63;0.87;;;;;;;;;;5053224;28;20419;-70
2023/12/05 10:42:47;;;;;;;1.03;0.87;;;;;;;;;;5053229;28;20907;-71
2023/12/05 10:45:13;;;;;;;3.07;1.10;;;;;;;;;;5053495;28;20907;-70
2023/12/05 10:47:39;;;;;;;1.43;1.27;;;;;;;;;;5053163;28;20419;-70
2023/12/05 10:50:05;;;;;;;7.33;1.47;;;;;;;;;;5053223;28;20418;-71
2023/12/05 10:52:34;;;;;;;2.70;1.23;;;;;;;;;;5052592;28;20425;-71
2023/12/05 10:55:00;;;;;;;4.10;1.00;;;;;;;;;;5053018;28;20430;-71
2023/12/05 10:57:34;;;;;;;1.33;1.20;;;;;;;;;;5053029;28;20430;-70
2023/12/05 10:59:59;;;;;;;3.07;1.33;;;;;;;;;;5053210;28;20409;-71
2023/12/05 11:02:25;;;;;;;2.00;1.40;;;;;;;;;;5053256;28;20474;-71
2023/12/05 11:04:52;;;;;;;1.70;1.60;;;;;;;;;;5052894;28;20466;-71
2023/12/05 11:07:18;;;;;;;1.40;1.27;;;;;;;;;;5053174;28;20422;-71
2023/12/05 11:09:44;;;;;;;3.63;1.63;;;;;;;;;;5052856;28;20406;-71
2023/12/05 11:12:10;;;;;;;12.43;4.67;;;;;;;;;;5052949;28;20785;-70
2023/12/05 11:14:40;;;;;;;9.23;3.73;;;;;;;;;;5052983;28;20421;-71
2023/12/05 11:17:11;;;;;;;5.00;2.10;;;;;;;;;;5053066;28;20958;-71
2023/12/05 11:19:55;;;;;;;5.30;4.23;;;;;;;;;;5052806;28;20403;-71
2023/12/05 11:22:40;;;;;;;25.13;11.37;;;;;;;;;;5052660;28;21057;-71
2023/12/05 11:25:12;;;;;;;5.33;3.47;;;;;;;;;;5052878;28;20990;-70
2023/12/05 11:27:38;;;;;;;4.13;3.80;;;;;;;;;;5052689;28;20497;-70
2023/12/05 11:30:11;;;;;;;2.00;1.30;;;;;;;;;;5052886;28;20453;-71
2023/12/05 11:32:58;;;;;;;1.50;1.40;;;;;;;;;;5052782;28;20186;-71
2023/12/05 11:35:28;;;;;;;4.27;3.77;;;;;;;;;;5052531;28;20955;-72
2023/12/05 11:37:57;;;;;;;2.97;1.20;;;;;;;;;;5052870;28;20414;-70
2023/12/05 11:40:23;;;;;;;3.23;1.20;;;;;;;;;;5052579;28;20422;-71
2023/12/05 11:43:08;;;;;;;3.80;1.20;;;;;;;;;;5052462;28;20437;-71
2023/12/05 11:45:38;;;;;;;2.00;1.53;;;;;;;;;;5052742;28;20414;-72
2023/12/05 11:48:04;;;;;;;3.07;2.10;;;;;;;;;;5052506;28;20952;-71
2023/12/05 11:50:39;;;;;;;8.83;3.97;;;;;;;;;;5052620;28;20414;-70
2023/12/05 11:53:08;;;;;;;14.80;3.87;;;;;;;;;;5052839;28;20412;-71
2023/12/05 11:55:34;;;;;;;8.70;5.17;;;;;;;;;;5052768;28;20422;-71
2023/12/05 11:58:00;;;;;;;4.60;3.70;;;;;;;;;;5052540;28;20422;-71
2023/12/05 12:00:26;;;;;;;12.30;3.63;;;;;;;;;;5052644;28;20446;-71
2023/12/05 12:02:57;;;;;;;1.67;1.57;;;;;;;;;;5052390;28;20491;-71
2023/12/05 12:05:23;;;;;;;4.60;2.90;;;;;;;;;;5055874;28;20509;-71
2023/12/05 12:07:56;;;;;;;11.80;2.00;;;;;;;;;;5056459;28;20418;-72
2023/12/05 12:10:22;;;;;;;2.53;1.53;;;;;;;;;;5056235;28;20399;-71
2023/12/05 12:12:48;;;;;;;6.63;3.10;;;;;;;;;;5056320;28;20427;-71
2023/12/05 12:15:15;;;;;;;6.13;2.80;;;;;;;;;;5056621;28;20422;-71
2023/12/05 12:17:44;;;;;;;5.63;3.37;;;;;;;;;;5056373;28;20434;-71
2023/12/05 12:20:11;;;;;;;8.83;2.60;;;;;;;;;;5056292;28;20411;-71
2023/12/05 12:22:37;;;;;;;3.83;2.90;;;;;;;;;;5055872;28;20569;-71
2023/12/05 12:25:05;;;;;;;1.83;1.73;;;;;;;;;;5056193;28;20446;-71
2023/12/05 12:27:34;;;;;;;4.20;1.83;;;;;;;;;;5056061;28;20556;-71
2023/12/05 12:30:00;;;;;;;3.77;3.37;;;;;;;;;;5055472;28;20903;-71
2023/12/05 12:32:27;;;;;;;4.83;2.70;;;;;;;;;;5055657;28;20417;-71
2023/12/05 12:34:53;;;;;;;10.87;5.63;;;;;;;;;;5055438;28;20899;-71
2023/12/05 12:37:18;;;;;;;14.00;7.93;;;;;;;;;;5055791;28;20415;-71
2023/12/05 12:39:45;;;;;;;8.00;3.90;;;;;;;;;;5054395;28;20437;-71
2023/12/05 12:42:12;;;;;;;5.90;2.13;;;;;;;;;;5055894;28;20808;-71
2023/12/05 12:44:38;;;;;;;2.67;1.30;;;;;;;;;;5056064;28;20860;-71
2023/12/05 12:47:04;;;;;;;10.57;3.87;;;;;;;;;;5055580;28;20422;-71
2023/12/05 12:52:34;;;;;;;3.00;2.60;;;;;;;;;;5055428;28;20433;-71
2023/12/05 12:55:00;;;;;;;6.33;3.93;;;;;;;;;;5054486;28;20777;-72
2023/12/05 12:57:26;;;;;;;15.90;2.80;;;;;;;;;;5055233;28;20505;-71
2023/12/05 13:02:56;;;;;;;3.70;3.50;;;;;;;;;;5055258;28;20762;-71
2023/12/05 13:05:39;;;;;;;6.93;2.33;;;;;;;;;;5054792;28;20465;-71
2023/12/05 13:08:05;;;;;;;2.33;1.73;;;;;;;;;;5055180;28;20509;-71
2023/12/05 13:10:32;;;;;;;6.93;2.77;;;;;;;;;;5054894;28;20426;-71
2023/12/05 13:12:58;;;;;;;2.00;1.80;;;;;;;;;;5055299;28;20471;-71
2023/12/05 13:15:26;;;;;;;5.10;1.67;;;;;;;;;;5054514;28;20907;-71
2023/12/05 13:18:04;;;;;;;4.33;2.37;;;;;;;;;;5055093;28;20418;-71
2023/12/05 13:20:31;;;;;;;5.00;3.47;;;;;;;;;;5054635;28;20422;-71
2023/12/05 13:22:58;;;;;;;3.47;2.20;;;;;;;;;;5054719;28;20423;-71
2023/12/05 13:25:24;;;;;;;10.13;2.40;;;;;;;;;;5055443;28;20414;-71
2023/12/05 13:27:50;;;;;;;6.40;2.47;;;;;;;;;;5054744;28;20460;-71
2023/12/05 13:30:17;;;;;;;6.53;2.60;;;;;;;;;;5054682;28;20430;-71
2023/12/05 13:32:43;;;;;;;6.00;4.67;;;;;;;;;;5054832;28;20516;-71
2023/12/05 13:35:09;;;;;;;17.83;8.50;;;;;;;;;;5054554;28;20406;-71
2023/12/05 13:37:36;;;;;;;27.20;10.97;;;;;;;;;;5054469;28;20433;-71
2023/12/05 13:40:04;;;;;;;15.73;9.10;;;;;;;;;;5054506;28;20513;-71
2023/12/05 13:42:30;;;;;;;4.20;2.27;;;;;;;;;;5054375;28;20474;-71
2023/12/05 13:44:56;;;;;;;1.93;1.77;;;;;;;;;;5054208;28;20424;-71
2023/12/05 13:47:22;;;;;;;1.30;1.20;;;;;;;;;;5054336;28;20423;-71
2023/12/05 13:49:48;;;;;;;9.43;1.77;;;;;;;;;;5054494;28;20433;-71
2023/12/05 13:52:13;;;;;;;3.47;2.43;;;;;;;;;;5054448;28;20433;-71
2023/12/05 13:54:39;;;;;;;2.50;1.20;;;;;;;;;;5054321;28;20505;-71
2023/12/05 13:57:05;;;;;;;4.10;2.17;;;;;;;;;;5054219;28;20415;-72
2023/12/05 13:59:32;;;;;;;3.73;1.40;;;;;;;;;;5052850;28;20418;-71
2023/12/05 14:01:58;;;;;;;5.10;2.47;;;;;;;;;;5054016;28;20564;-71
2023/12/05 14:04:24;;;;;;;1.83;1.50;;;;;;;;;;5053626;28;20820;-71
2023/12/05 14:06:50;;;;;;;3.20;1.90;;;;;;;;;;5053980;28;20427;-71
2023/12/05 14:09:16;;;;;;;1.40;1.40;;;;;;;;;;5053859;28;20418;-71
2023/12/05 14:11:44;;;;;;;3.20;2.00;;;;;;;;;;5054152;28;20422;-71
2023/12/05 14:14:10;;;;;;;4.10;2.30;;;;;;;;;;5053794;28;20421;-71
2023/12/05 14:16:37;;;;;;;6.27;4.90;;;;;;;;;;5053592;28;20518;-71
2023/12/05 14:19:03;;;;;;;2.20;2.10;;;;;;;;;;5054151;28;20422;-71
2023/12/05 14:21:30;;;;;;;2.23;2.03;;;;;;;;;;5053523;28;20470;-71
2023/12/05 14:23:55;;;;;;;1.57;0.83;;;;;;;;;;5053913;28;20417;-71
2023/12/05 14:26:21;;;;;;;1.20;1.20;;;;;;;;;;5053683;28;20853;-71
2023/12/05 14:28:47;;;;;;;1.63;1.53;;;;;;;;;;5052847;28;20460;-71
2023/12/05 14:31:13;;;;;;;1.00;1.00;;;;;;;;;;5053206;28;20414;-72
2023/12/05 14:33:39;;;;;;;3.90;0.97;;;;;;;;;;5053535;28;20422;-71
2023/12/05 14:36:06;;;;;;;1.50;1.50;;;;;;;;;;5051753;28;20419;-71
2023/12/05 14:38:32;;;;;;;2.97;2.10;;;;;;;;;;5053213;28;20441;-71
2023/12/05 14:40:58;;;;;;;3.30;3.10;;;;;;;;;;5053555;28;20541;-71
2023/12/05 14:43:24;;;;;;;2.07;1.80;;;;;;;;;;5053423;28;20501;-71
2023/12/05 14:45:50;;;;;;;2.73;0.63;;;;;;;;;;5053242;28;20421;-71
2023/12/05 14:48:16;;;;;;;2.20;1.80;;;;;;;;;;5053579;28;20433;-71
2023/12/05 14:50:42;;;;;;;7.93;5.80;;;;;;;;;;5051958;28;20423;-71
2023/12/05 14:53:11;;;;;;;1.67;1.63;;;;;;;;;;5051740;28;20422;-71
2023/12/05 14:55:39;;;;;;;3.17;2.97;;;;;;;;;;5053427;28;20422;-71
2023/12/05 14:58:05;;;;;;;2.10;1.03;;;;;;;;;;5053240;28;20509;-71
2023/12/05 15:00:30;;;;;;;3.23;0.70;;;;;;;;;;5053166;28;20450;-71